< < Back
Terminal Aerodrome Forecast


Current Version              Previous Versions:   1  2  3  4  5  6  7  8  9  

Terminal Aerodrome Forecast

718
FTUS44 KBMX 231700
TAFMGM
TAF
KMGM 231733Z 2318/2418 35005KT P6SM SKC=

Latest METAR

569
SAUS80 KWBC 242000
MTRMGM
METAR KMGM 241953Z VRB06KT 10SM FEW060 30/14 A2992 RMK AO2 SLP127
T03000139


USA.gov is the U.S. government's official web portal to all federal, state and local government web resources and services.